createdAt,value
2019-02-16T00:02:20.751Z,4.29
2019-02-16T00:04:47.551Z,4.31
2019-02-16T00:07:16.035Z,4.44
2019-02-16T00:09:42.790Z,4.44
2019-02-16T00:12:09.768Z,4.32
2019-02-16T00:14:36.859Z,4.32
2019-02-16T00:17:06.632Z,4.41
2019-02-16T00:19:33.408Z,4.41
2019-02-16T00:22:00.220Z,4.41
2019-02-16T00:24:26.974Z,4.39
2019-02-16T00:26:53.728Z,4.43
2019-02-16T00:29:20.526Z,4.51
2019-02-16T00:31:47.260Z,4.30
2019-02-16T00:34:13.998Z,4.02
2019-02-16T00:36:40.854Z,3.97
2019-02-16T00:39:07.636Z,4.03
2019-02-16T00:41:34.386Z,4.10
2019-02-16T00:44:01.167Z,4.10
2019-02-16T00:46:27.976Z,4.10
2019-02-16T00:48:54.788Z,4.07
2019-02-16T00:51:21.826Z,4.05
2019-02-16T00:53:48.579Z,4.00
2019-02-16T00:56:15.499Z,3.83
2019-02-16T00:58:42.251Z,3.85
2019-02-16T01:01:10.144Z,3.85
2019-02-16T01:03:36.934Z,3.82
2019-02-16T01:06:05.957Z,3.85
2019-02-16T01:08:36.184Z,3.83
2019-02-16T01:11:02.942Z,3.85
2019-02-16T01:13:29.679Z,3.81
2019-02-16T01:15:57.852Z,3.69
2019-02-16T01:18:24.684Z,3.68
2019-02-16T01:20:51.405Z,3.62
2019-02-16T01:23:18.276Z,3.59
2019-02-16T01:25:44.991Z,3.22
2019-02-16T01:28:13.028Z,3.04
2019-02-16T01:30:39.914Z,2.91
2019-02-16T01:33:06.724Z,3.04
2019-02-16T01:35:33.486Z,3.25
2019-02-16T01:38:00.309Z,3.36
2019-02-16T01:40:27.052Z,3.37
2019-02-16T01:42:53.840Z,3.26
2019-02-16T01:45:20.538Z,3.19
2019-02-16T01:47:47.286Z,3.29
2019-02-16T01:50:14.067Z,3.37
2019-02-16T01:52:40.897Z,3.40
2019-02-16T01:55:09.151Z,3.38
2019-02-16T01:57:36.085Z,3.36
2019-02-16T02:00:04.780Z,3.28
2019-02-16T02:02:31.811Z,3.35
2019-02-16T02:04:58.566Z,3.36
2019-02-16T02:07:25.274Z,3.32
2019-02-16T02:09:52.337Z,3.25
2019-02-16T02:12:21.680Z,3.28
2019-02-16T02:14:51.034Z,3.28
2019-02-16T02:17:17.771Z,3.30
2019-02-16T02:19:44.529Z,3.24
2019-02-16T02:22:11.268Z,3.19
2019-02-16T02:24:38.009Z,3.10
2019-02-16T02:27:04.737Z,3.07
2019-02-16T02:29:34.319Z,3.00
2019-02-16T02:32:01.043Z,2.94
2019-02-16T02:34:27.782Z,3.00
2019-02-16T02:36:57.139Z,3.16
2019-02-16T02:39:23.939Z,3.15
2019-02-16T02:41:50.867Z,3.14
2019-02-16T02:44:17.616Z,3.10
2019-02-16T02:46:44.457Z,3.01
2019-02-16T02:49:11.295Z,3.16
2019-02-16T02:51:38.904Z,3.08
2019-02-16T02:54:05.651Z,3.07
2019-02-16T02:56:32.395Z,3.02
2019-02-16T02:58:59.234Z,3.02
2019-02-16T03:01:26.013Z,3.07
2019-02-16T03:03:52.794Z,3.26
2019-02-16T03:06:19.687Z,3.33
2019-02-16T03:08:46.528Z,3.32
2019-02-16T03:11:13.265Z,3.35
2019-02-16T03:13:40.123Z,3.19
2019-02-16T03:16:06.963Z,3.03
2019-02-16T03:18:33.837Z,2.92
2019-02-16T03:21:00.610Z,2.94
2019-02-16T03:23:28.862Z,2.93
2019-02-16T03:26:12.343Z,3.00
2019-02-16T03:29:11.551Z,2.98
2019-02-16T03:32:38.821Z,3.14
2019-02-16T03:35:41.122Z,3.11
2019-02-16T03:38:47.223Z,2.96
2019-02-16T03:41:16.613Z,2.96
2019-02-16T03:43:43.351Z,2.95
2019-02-16T03:46:10.068Z,2.98
2019-02-16T03:48:36.968Z,2.89
2019-02-16T03:51:03.717Z,2.68
2019-02-16T03:53:30.881Z,2.68
2019-02-16T03:55:57.604Z,2.75
2019-02-16T03:58:24.389Z,2.66
2019-02-16T04:00:51.251Z,2.67
2019-02-16T04:03:18.124Z,2.61
2019-02-16T04:05:44.847Z,2.61
2019-02-16T04:08:11.608Z,2.64
2019-02-16T04:10:38.337Z,2.68
2019-02-16T04:13:05.075Z,2.75
2019-02-16T04:15:35.108Z,2.68
2019-02-16T04:18:01.939Z,2.58
2019-02-16T04:20:28.687Z,2.46
2019-02-16T04:22:55.433Z,2.48
2019-02-16T04:25:22.169Z,2.48
2019-02-16T04:27:51.754Z,2.38
2019-02-16T04:30:18.595Z,2.45
2019-02-16T04:32:45.432Z,2.49
2019-02-16T04:35:12.198Z,2.40
2019-02-16T04:37:39.047Z,2.36
2019-02-16T04:40:07.864Z,2.40
2019-02-16T04:42:34.642Z,2.43
2019-02-16T04:45:01.369Z,2.51
2019-02-16T04:47:28.095Z,2.55
2019-02-16T04:49:54.814Z,2.50
2019-02-16T04:52:21.582Z,2.33
2019-02-16T04:54:48.291Z,2.34
2019-02-16T04:57:15.492Z,2.35
2019-02-16T04:59:42.217Z,2.35
2019-02-16T05:02:08.949Z,2.46
2019-02-16T05:04:35.691Z,2.46
2019-02-16T05:07:02.783Z,2.35
2019-02-16T05:09:29.502Z,2.18
2019-02-16T05:11:56.367Z,2.34
2019-02-16T05:14:23.206Z,2.39
2019-02-16T05:16:51.921Z,2.33
2019-02-16T05:19:18.668Z,2.32
2019-02-16T05:21:45.446Z,2.23
2019-02-16T05:24:13.648Z,2.18
2019-02-16T05:26:40.361Z,2.20
2019-02-16T05:29:10.081Z,2.22
2019-02-16T05:31:37.382Z,2.24
2019-02-16T05:34:04.210Z,2.15
2019-02-16T05:36:31.605Z,1.84
2019-02-16T05:39:04.164Z,1.71
2019-02-16T05:41:30.929Z,1.94
2019-02-16T05:44:00.937Z,2.05
2019-02-16T05:46:27.782Z,1.97
2019-02-16T05:48:54.500Z,1.98
2019-02-16T05:51:21.591Z,1.98
2019-02-16T05:53:48.342Z,1.96
2019-02-16T05:56:15.096Z,1.93
2019-02-16T05:58:41.834Z,1.84
2019-02-16T06:01:08.607Z,1.93
2019-02-16T06:03:35.399Z,2.01
2019-02-16T06:06:02.175Z,1.98
2019-02-16T06:08:28.935Z,1.99
2019-02-16T06:10:58.556Z,1.90
2019-02-16T06:13:25.283Z,2.01
2019-02-16T06:15:52.175Z,2.06
2019-02-16T06:18:19.336Z,2.11
2019-02-16T06:20:48.875Z,1.96
2019-02-16T06:23:15.761Z,1.93
2019-02-16T06:25:42.497Z,1.84
2019-02-16T06:28:09.374Z,1.90
2019-02-16T06:30:36.109Z,1.82
2019-02-16T06:33:02.829Z,1.79
2019-02-16T06:35:40.035Z,1.79
2019-02-16T06:38:07.624Z,1.88
2019-02-16T06:40:34.844Z,1.92
2019-02-16T06:43:01.589Z,1.91
2019-02-16T06:45:28.416Z,1.88
2019-02-16T06:47:55.262Z,1.76
2019-02-16T06:50:22.007Z,1.79
2019-02-16T06:52:51.651Z,1.78
2019-02-16T06:55:18.454Z,1.82
2019-02-16T06:57:47.984Z,1.91
2019-02-16T07:00:16.919Z,1.99
2019-02-16T07:02:43.892Z,2.02
2019-02-16T07:05:11.135Z,2.05
2019-02-16T07:07:37.902Z,2.11
2019-02-16T07:10:05.664Z,2.00
2019-02-16T07:12:43.592Z,2.03
2019-02-16T07:15:10.336Z,2.10
2019-02-16T07:17:52.525Z,2.01
2019-02-16T07:20:21.179Z,1.91
2019-02-16T07:22:48.125Z,1.08
2019-02-16T07:25:15.232Z,2.04
2019-02-16T07:27:41.990Z,2.07
2019-02-16T07:30:13.745Z,2.18
2019-02-16T07:32:43.353Z,2.28
2019-02-16T07:35:10.481Z,2.33
2019-02-16T07:37:37.626Z,2.29
2019-02-16T07:40:04.502Z,2.28
2019-02-16T07:42:48.174Z,2.37
2019-02-16T07:45:21.256Z,2.45
2019-02-16T07:48:07.600Z,2.45
2019-02-16T07:50:48.959Z,2.41
2019-02-16T07:53:41.361Z,2.47
2019-02-16T07:56:30.238Z,2.48
2019-02-16T07:59:16.918Z,2.67
2019-02-16T08:01:49.931Z,2.79
2019-02-16T08:04:30.844Z,2.78
2019-02-16T08:07:20.927Z,2.71
2019-02-16T08:10:05.831Z,2.76
2019-02-16T08:12:54.965Z,2.89
2019-02-16T08:15:41.377Z,3.13
2019-02-16T08:18:33.852Z,3.19
2019-02-16T08:21:20.161Z,3.25
2019-02-16T08:24:15.385Z,3.30
2019-02-16T08:26:55.198Z,3.51
2019-02-16T08:29:44.604Z,3.64
2019-02-16T08:32:43.264Z,3.56
2019-02-16T08:35:25.991Z,3.65
2019-02-16T08:38:11.183Z,3.81
2019-02-16T08:41:00.630Z,3.89
2019-02-16T08:43:49.168Z,3.98
2019-02-16T08:46:26.795Z,3.95
2019-02-16T08:49:06.585Z,4.12
2019-02-16T08:51:48.587Z,4.21
2019-02-16T08:54:23.981Z,4.30
2019-02-16T08:57:12.595Z,4.35
2019-02-16T09:00:14.231Z,4.45
2019-02-16T09:02:59.774Z,4.41
2019-02-16T09:05:51.400Z,4.78
2019-02-16T09:08:34.399Z,5.06
2019-02-16T09:11:27.289Z,5.31
2019-02-16T09:14:00.847Z,5.41
2019-02-16T09:16:38.395Z,5.48
2019-02-16T09:19:24.317Z,5.59
2019-02-16T09:22:17.814Z,5.69
2019-02-16T09:24:53.645Z,5.77
2019-02-16T09:27:48.986Z,5.94
2019-02-16T09:30:40.599Z,6.14
2019-02-16T09:33:27.526Z,6.17
2019-02-16T09:36:16.891Z,6.35
2019-02-16T09:39:07.899Z,6.45
2019-02-16T09:41:55.105Z,6.58
2019-02-16T09:44:41.621Z,6.62
2019-02-16T09:47:37.216Z,6.66
2019-02-16T09:50:10.650Z,6.84
2019-02-16T09:52:50.325Z,7.03
2019-02-16T09:55:45.902Z,7.03
2019-02-16T09:58:31.315Z,7.38
2019-02-16T10:01:24.145Z,7.57
2019-02-16T10:04:28.612Z,7.57
2019-02-16T10:07:10.617Z,7.67
2019-02-16T10:09:57.312Z,7.67
2019-02-16T10:12:34.514Z,7.84
2019-02-16T10:15:24.381Z,7.89
2019-02-16T10:18:06.295Z,7.89
2019-02-16T10:20:51.311Z,8.10
2019-02-16T10:23:33.053Z,8.21
2019-02-16T10:26:15.330Z,8.49
2019-02-16T10:28:52.444Z,8.49
2019-02-16T10:31:37.329Z,8.79
2019-02-16T10:34:29.867Z,8.79
2019-02-16T10:37:07.296Z,8.80
2019-02-16T10:40:06.223Z,8.92
2019-02-16T10:43:07.664Z,9.02
2019-02-16T10:45:56.412Z,9.11
2019-02-16T10:48:31.023Z,9.24
2019-02-16T10:51:08.929Z,9.32
2019-02-16T10:53:55.309Z,9.46
2019-02-16T10:56:37.776Z,9.56
2019-02-16T10:59:30.234Z,9.67
2019-02-16T11:02:32.009Z,9.76
2019-02-16T11:05:16.743Z,9.91
2019-02-16T11:08:06.407Z,10.04
2019-02-16T11:13:29.267Z,10.33
2019-02-16T11:16:03.557Z,10.37
2019-02-16T11:18:39.829Z,10.48
2019-02-16T11:21:41.597Z,10.59
2019-02-16T11:24:46.834Z,10.67
2019-02-16T11:27:25.123Z,10.81
2019-02-16T11:30:12.185Z,10.97
2019-02-16T11:32:52.554Z,11.12
2019-02-16T11:35:40.375Z,11.24
2019-02-16T11:38:13.519Z,11.36
2019-02-16T11:41:06.261Z,11.49
2019-02-16T11:43:58.404Z,11.66
2019-02-16T11:46:44.805Z,11.82
2019-02-16T11:49:27.374Z,11.97
2019-02-16T11:52:03.683Z,12.13
2019-02-16T11:55:02.271Z,12.35
2019-02-16T11:57:46.598Z,12.53
2019-02-16T12:00:31.998Z,12.64
2019-02-16T12:03:04.706Z,12.74
2019-02-16T12:05:36.228Z,12.99
2019-02-16T12:08:28.481Z,13.13
2019-02-16T12:11:08.516Z,13.30
2019-02-16T12:13:54.057Z,13.47
2019-02-16T12:16:30.360Z,13.62
2019-02-16T12:19:19.711Z,13.83
2019-02-16T12:22:14.482Z,14.00
2019-02-16T12:25:05.718Z,14.06
2019-02-16T12:27:46.244Z,14.21
2019-02-16T12:30:31.545Z,14.34
2019-02-16T12:33:06.571Z,14.53
2019-02-16T12:35:54.337Z,14.69
2019-02-16T12:38:39.406Z,14.84
2019-02-16T12:41:25.971Z,14.93
2019-02-16T12:44:11.649Z,15.01
2019-02-16T12:46:56.050Z,15.18
2019-02-16T12:49:35.604Z,15.33
2019-02-16T12:52:15.813Z,15.42
2019-02-16T12:54:50.957Z,15.56
2019-02-16T12:57:45.330Z,15.66
2019-02-16T13:00:28.373Z,15.83
2019-02-16T13:03:11.783Z,15.94
2019-02-16T13:05:54.626Z,16.09
2019-02-16T13:08:48.307Z,16.22
2019-02-16T13:11:35.043Z,16.34
2019-02-16T13:14:25.692Z,16.44
2019-02-16T13:17:15.407Z,16.50
2019-02-16T13:19:54.233Z,16.62
2019-02-16T13:22:32.830Z,16.78
2019-02-16T13:25:12.520Z,16.86
2019-02-16T13:28:02.651Z,17.00
2019-02-16T13:30:43.889Z,17.14
2019-02-16T13:33:23.996Z,17.33
2019-02-16T13:36:28.466Z,17.49
2019-02-16T13:39:19.746Z,17.58
2019-02-16T13:41:58.264Z,17.63
2019-02-16T13:44:41.170Z,17.84
2019-02-16T13:47:18.951Z,17.88
2019-02-16T13:50:14.422Z,17.87
2019-02-16T13:53:12.893Z,17.97
2019-02-16T13:55:59.618Z,18.00
2019-02-16T13:58:33.491Z,18.23
2019-02-16T14:01:19.484Z,18.44
2019-02-16T14:03:57.933Z,18.43
2019-02-16T14:06:37.612Z,18.49
2019-02-16T14:09:30.598Z,18.62
2019-02-16T14:12:30.184Z,18.69
2019-02-16T14:15:06.700Z,18.77
2019-02-16T14:17:44.650Z,18.84
2019-02-16T14:20:12.082Z,18.90
2019-02-16T14:22:39.316Z,18.91
2019-02-16T14:25:08.709Z,19.08
2019-02-16T14:27:35.776Z,18.91
2019-02-16T14:30:02.950Z,18.93
2019-02-16T14:32:31.910Z,18.97
2019-02-16T14:34:58.935Z,18.94
2019-02-16T14:37:48.631Z,18.91
2019-02-16T14:40:15.524Z,18.82
2019-02-16T14:42:42.628Z,18.50
2019-02-16T14:45:10.504Z,18.27
2019-02-16T14:47:37.384Z,18.09
2019-02-16T14:50:04.779Z,17.92
2019-02-16T14:52:35.002Z,17.80
2019-02-16T14:55:01.848Z,17.66
2019-02-16T14:57:28.717Z,17.50
2019-02-16T14:59:56.293Z,17.32
2019-02-16T15:02:25.651Z,17.20
2019-02-16T15:04:52.580Z,17.03
2019-02-16T15:07:19.338Z,16.92
2019-02-16T15:09:46.408Z,16.91
2019-02-16T15:12:13.614Z,16.82
2019-02-16T15:14:40.355Z,16.74
2019-02-16T15:17:07.481Z,16.68
2019-02-16T15:19:34.341Z,16.63
2019-02-16T15:22:01.063Z,16.56
2019-02-16T15:24:28.061Z,16.56
2019-02-16T15:26:55.004Z,16.55
2019-02-16T15:29:23.995Z,16.51
2019-02-16T15:31:50.894Z,16.44
2019-02-16T15:34:17.681Z,16.39
2019-02-16T15:36:44.666Z,16.35
2019-02-16T15:39:11.441Z,16.28
2019-02-16T15:41:38.215Z,16.23
2019-02-16T15:44:05.045Z,16.21
2019-02-16T15:46:31.861Z,16.19
2019-02-16T15:48:59.520Z,16.13
2019-02-16T15:51:26.317Z,16.09
2019-02-16T15:53:53.159Z,16.06
2019-02-16T15:56:21.629Z,16.00
2019-02-16T15:58:48.589Z,15.94
2019-02-16T16:01:15.695Z,15.92
2019-02-16T16:03:42.517Z,15.92
2019-02-16T16:06:09.344Z,15.90
2019-02-16T16:09:02.025Z,15.88
2019-02-16T16:11:50.510Z,15.86
2019-02-16T16:14:37.113Z,15.77
2019-02-16T16:17:38.623Z,15.72
2019-02-16T16:20:28.074Z,15.65
2019-02-16T16:23:06.815Z,15.57
2019-02-16T16:25:39.894Z,15.57
2019-02-16T16:28:22.767Z,15.52
2019-02-16T16:30:57.639Z,15.48
2019-02-16T16:33:52.657Z,15.42
2019-02-16T16:36:28.939Z,15.37
2019-02-16T16:39:16.721Z,15.29
2019-02-16T16:42:05.956Z,15.21
2019-02-16T16:44:38.043Z,15.13
2019-02-16T16:47:42.689Z,14.99
2019-02-16T16:50:25.011Z,14.85
2019-02-16T16:53:10.265Z,14.67
2019-02-16T16:55:53.573Z,14.50
2019-02-16T16:58:42.795Z,14.38
2019-02-16T17:01:27.635Z,14.22
2019-02-16T17:04:17.519Z,14.09
2019-02-16T17:07:08.407Z,14.01
2019-02-16T17:09:53.465Z,13.91
2019-02-16T17:12:40.044Z,13.80
2019-02-16T17:15:19.728Z,13.74
2019-02-16T17:17:54.172Z,13.71
2019-02-16T17:20:30.694Z,13.62
2019-02-16T17:23:20.149Z,13.62
2019-02-16T17:26:10.116Z,13.40
2019-02-16T17:28:50.967Z,13.22
2019-02-16T17:31:23.541Z,13.05
2019-02-16T17:34:21.589Z,12.84
2019-02-16T17:36:57.854Z,12.66
2019-02-16T17:39:38.564Z,12.50
2019-02-16T17:42:43.411Z,12.44
2019-02-16T17:45:33.409Z,12.41
2019-02-16T17:48:20.241Z,12.28
2019-02-16T17:50:56.495Z,12.26
2019-02-16T17:53:43.306Z,12.21
2019-02-16T17:56:22.357Z,12.12
2019-02-16T17:59:17.606Z,12.04
2019-02-16T18:01:54.741Z,12.00
2019-02-16T18:04:41.167Z,11.90
2019-02-16T18:07:18.315Z,11.72
2019-02-16T18:10:04.681Z,11.53
2019-02-16T18:12:43.710Z,11.42
2019-02-16T18:15:33.593Z,10.55
2019-02-16T18:18:35.289Z,11.26
2019-02-16T18:21:10.368Z,11.20
2019-02-16T18:23:50.589Z,11.14
2019-02-16T18:26:56.742Z,10.98
2019-02-16T18:29:46.383Z,10.89
2019-02-16T18:32:35.803Z,10.87
2019-02-16T18:35:31.287Z,10.74
2019-02-16T18:38:16.333Z,10.64
2019-02-16T18:41:09.134Z,10.50
2019-02-16T18:43:45.587Z,10.48
2019-02-16T18:46:46.703Z,10.44
2019-02-16T18:49:31.646Z,10.36
2019-02-16T18:52:16.947Z,10.32
2019-02-16T18:54:58.798Z,10.25
2019-02-16T18:57:51.000Z,10.19
2019-02-16T19:00:49.476Z,10.13
2019-02-16T19:03:45.362Z,10.09
2019-02-16T19:06:39.467Z,9.98
2019-02-16T19:09:24.206Z,9.92
2019-02-16T19:12:09.548Z,9.89
2019-02-16T19:15:07.787Z,9.82
2019-02-16T19:17:50.338Z,9.74
2019-02-16T19:20:35.307Z,9.68
2019-02-16T19:23:36.766Z,9.61
2019-02-16T19:26:31.689Z,9.57
2019-02-16T19:29:07.906Z,9.43
2019-02-16T19:31:48.680Z,9.28
2019-02-16T19:34:35.068Z,9.12
2019-02-16T19:37:21.432Z,9.09
2019-02-16T19:39:57.607Z,9.00
2019-02-16T19:42:49.775Z,8.95
2019-02-16T19:45:48.493Z,8.76
2019-02-16T19:48:37.904Z,8.82
2019-02-16T19:51:23.223Z,8.77
2019-02-16T19:54:04.334Z,8.65
2019-02-16T19:56:53.700Z,8.65
2019-02-16T19:59:49.187Z,8.59
2019-02-16T20:02:39.195Z,8.59
2019-02-16T20:05:25.321Z,8.57
2019-02-16T20:08:00.710Z,8.52
2019-02-16T20:10:41.464Z,8.53
2019-02-16T20:13:26.595Z,8.56
2019-02-16T20:16:05.452Z,8.28
2019-02-16T20:18:51.847Z,8.22
2019-02-16T20:21:34.463Z,8.16
2019-02-16T20:24:17.798Z,8.18
2019-02-16T20:27:08.749Z,8.25
2019-02-16T20:29:45.772Z,8.19
2019-02-16T20:32:30.546Z,8.11
2019-02-16T20:35:19.293Z,7.97
2019-02-16T20:38:18.025Z,7.87
2019-02-16T20:41:03.295Z,7.71
2019-02-16T20:43:59.618Z,7.75
2019-02-16T20:46:31.874Z,7.78
2019-02-16T20:49:24.007Z,7.72
2019-02-16T20:52:13.176Z,7.50
2019-02-16T20:55:11.773Z,7.41
2019-02-16T20:57:48.369Z,7.47
2019-02-16T21:00:29.418Z,7.42
2019-02-16T21:03:18.551Z,7.38
2019-02-16T21:06:17.060Z,7.49
2019-02-16T21:09:09.261Z,7.51
2019-02-16T21:11:55.667Z,7.32
2019-02-16T21:14:31.225Z,7.20
2019-02-16T21:17:06.866Z,7.21
2019-02-16T21:19:44.789Z,7.14
2019-02-16T21:22:33.918Z,7.05
2019-02-16T21:25:09.791Z,6.94
2019-02-16T21:27:43.438Z,6.98
2019-02-16T21:30:37.989Z,7.04
2019-02-16T21:33:39.716Z,7.14
2019-02-16T21:36:19.028Z,7.17
2019-02-16T21:39:11.362Z,7.00
2019-02-16T21:42:04.302Z,6.76
2019-02-16T21:45:02.690Z,6.70
2019-02-16T21:47:47.586Z,6.71
2019-02-16T21:50:32.416Z,6.72
2019-02-16T21:53:08.657Z,6.75
2019-02-16T21:56:01.562Z,6.82
2019-02-16T21:58:50.794Z,6.71
2019-02-16T22:01:28.408Z,6.71
2019-02-16T22:04:04.831Z,6.69
2019-02-16T22:06:43.468Z,6.63
2019-02-16T22:09:28.414Z,6.53
2019-02-16T22:12:20.727Z,6.49
2019-02-16T22:14:47.467Z,6.41
2019-02-16T22:17:14.216Z,6.40
2019-02-16T22:19:41.027Z,6.37
2019-02-16T22:22:07.793Z,6.18
2019-02-16T22:24:34.775Z,6.18
2019-02-16T22:27:01.553Z,6.14
2019-02-16T22:29:30.313Z,6.10
2019-02-16T22:31:57.120Z,6.10
2019-02-16T22:34:23.857Z,6.22
2019-02-16T22:36:50.646Z,6.09
2019-02-16T22:39:17.766Z,6.01
2019-02-16T22:41:44.505Z,5.95
2019-02-16T22:44:11.322Z,5.99
2019-02-16T22:46:40.419Z,6.02
2019-02-16T22:49:07.201Z,5.99
2019-02-16T22:51:34.041Z,5.99
2019-02-16T22:54:01.171Z,5.77
2019-02-16T22:56:28.394Z,5.77
2019-02-16T22:58:55.389Z,5.71
2019-02-16T23:01:22.245Z,5.69
2019-02-16T23:03:49.003Z,5.69
2019-02-16T23:06:15.777Z,5.78
2019-02-16T23:08:42.661Z,5.67
2019-02-16T23:11:09.426Z,5.67
2019-02-16T23:13:36.499Z,5.60
2019-02-16T23:16:03.269Z,5.60
2019-02-16T23:18:30.038Z,5.57
2019-02-16T23:20:57.274Z,5.54
2019-02-16T23:23:24.055Z,5.35
2019-02-16T23:25:53.819Z,5.25
2019-02-16T23:28:20.600Z,5.33
2019-02-16T23:30:49.329Z,5.21
2019-02-16T23:33:16.187Z,5.13
2019-02-16T23:35:43.109Z,5.13
2019-02-16T23:38:10.000Z,5.27
2019-02-16T23:40:36.934Z,5.15
2019-02-16T23:43:03.781Z,5.13
2019-02-16T23:45:30.581Z,5.23
2019-02-16T23:47:57.333Z,5.16
2019-02-16T23:50:24.237Z,5.15
2019-02-16T23:52:51.097Z,4.99
2019-02-16T23:55:17.854Z,4.99
2019-02-16T23:57:44.885Z,5.01
